Time;durP1;ratioP1;P1;durP2;ratioP2;P2;SDS_P1;SDS_P2;PMS_P1;PMS_P2;Temp;Humidity;BMP_temperature;BMP_pressure;BME280_temperature;BME280_humidity;BME280_pressure;Samples;Min_cycle;Max_cycle;Signal;HPM_P1;HPM_P2
2022/09/18 00:01:13;;;;;;;5.92;3.15;;;;;;;12.01;100.00;96500.06;1849114;77;20900;-63
2022/09/18 00:03:40;;;;;;;5.08;3.27;;;;;;;12.01;100.00;96478.59;1849063;77;20920;-61
2022/09/18 00:06:15;;;;;;;7.75;3.47;;;;;;;12.03;100.00;96484.43;1849030;77;21229;-62
2022/09/18 00:08:42;;;;;;;7.47;3.45;;;;;;;12.04;100.00;96503.97;1849478;77;20971;-61
2022/09/18 00:11:12;;;;;;;5.90;3.60;;;;;;;11.98;100.00;96511.48;1849019;77;20888;-61
2022/09/18 00:13:39;;;;;;;3.75;3.35;;;;;;;11.95;100.00;96508.67;1849445;77;20959;-61
2022/09/18 00:16:08;;;;;;;4.50;3.40;;;;;;;11.91;100.00;96500.52;1849741;77;20865;-61
2022/09/18 00:18:35;;;;;;;4.03;3.42;;;;;;;11.89;100.00;96498.73;1849614;77;21298;-60
2022/09/18 00:21:08;;;;;;;4.30;3.50;;;;;;;11.82;100.00;96494.48;1849614;77;20916;-60
2022/09/18 00:23:35;;;;;;;4.70;3.65;;;;;;;11.77;100.00;96486.64;1850155;77;21461;-60
2022/09/18 00:26:03;;;;;;;4.95;3.60;;;;;;;11.73;100.00;96492.42;1849810;77;21446;-60
2022/09/18 00:28:31;;;;;;;4.33;3.40;;;;;;;11.73;100.00;96500.47;1849618;77;20920;-60
2022/09/18 00:31:08;;;;;;;3.72;3.30;;;;;;;11.72;100.00;96497.58;1849687;77;21065;-60
2022/09/18 00:33:36;;;;;;;3.83;3.25;;;;;;;11.70;100.00;96495.80;1849669;77;20865;-60
2022/09/18 00:36:04;;;;;;;4.42;3.52;;;;;;;11.68;100.00;96491.88;1849686;77;20860;-61
2022/09/18 00:38:31;;;;;;;5.97;3.45;;;;;;;11.64;100.00;96482.33;1849698;77;21501;-60
2022/09/18 00:40:59;;;;;;;4.97;3.83;;;;;;;11.63;100.00;96478.09;1849636;77;20907;-60
2022/09/18 00:43:30;;;;;;;5.25;3.50;;;;;;;11.59;100.00;96475.28;1849692;77;21070;-61
2022/09/18 00:46:06;;;;;;;3.80;3.40;;;;;;;11.57;100.00;96468.69;1849644;77;20857;-61
2022/09/18 00:48:48;;;;;;;7.22;4.00;;;;;;;11.55;100.00;96462.88;1849612;77;20888;-61
2022/09/18 00:51:14;;;;;;;5.72;4.03;;;;;;;11.52;100.00;96455.48;1849837;77;20856;-61
2022/09/18 00:53:46;;;;;;;4.78;3.47;;;;;;;11.49;100.00;96450.81;1849779;77;20927;-61
2022/09/18 00:56:14;;;;;;;5.15;3.45;;;;;;;11.41;100.00;96442.30;1849565;77;21106;-61
2022/09/18 00:58:41;;;;;;;6.90;4.00;;;;;;;11.34;100.00;96439.38;1849804;77;20958;-61
2022/09/18 01:01:08;;;;;;;5.45;4.08;;;;;;;11.29;100.00;96432.33;1849876;77;20876;-61
2022/09/18 01:03:35;;;;;;;4.80;3.52;;;;;;;11.22;100.00;96436.66;1849866;77;20844;-61
2022/09/18 01:06:28;;;;;;;5.47;3.42;;;;;;;11.17;100.00;96435.52;1849873;77;21466;-61
2022/09/18 01:09:16;;;;;;;3.70;3.20;;;;;;;11.12;100.00;96433.05;1849879;77;21126;-61
2022/09/18 01:11:55;;;;;;;4.55;3.75;;;;;;;11.07;100.00;96433.28;1849830;77;20876;-61
2022/09/18 01:14:36;;;;;;;4.17;3.62;;;;;;;11.05;100.00;96428.23;1849393;77;21407;-61
2022/09/18 01:17:30;;;;;;;5.15;3.80;;;;;;;11.05;100.00;96424.77;1849146;77;20911;-61
2022/09/18 01:20:42;;;;;;;4.65;3.80;;;;;;;11.03;100.00;96424.31;1849322;77;20860;-61
2022/09/18 01:23:34;;;;;;;5.85;3.70;;;;;;;11.03;100.00;96418.95;1848727;77;21326;-61
2022/09/18 01:26:26;;;;;;;5.17;3.95;;;;;;;11.00;100.00;96402.98;1848906;77;20923;-61
2022/09/18 01:29:13;;;;;;;4.92;3.30;;;;;;;10.96;100.00;96400.75;1838385;77;20909;-61
2022/09/18 01:31:48;;;;;;;4.33;3.72;;;;;;;10.92;100.00;96406.00;1849206;77;20876;-61
2022/09/18 01:34:40;;;;;;;5.03;3.45;;;;;;;10.87;100.00;96410.22;1849655;77;20868;-61
2022/09/18 01:37:24;;;;;;;7.20;3.65;;;;;;;10.85;100.00;96405.75;1849178;77;21261;-62
2022/09/18 01:39:56;;;;;;;5.87;3.80;;;;;;;10.82;100.00;96400.25;1849081;77;20916;-61
2022/09/18 01:42:25;;;;;;;4.70;3.52;;;;;;;10.79;100.00;96399.02;1849353;77;20901;-61
2022/09/18 01:44:54;;;;;;;3.92;3.42;;;;;;;10.76;100.00;96394.31;1849509;77;20947;-61
2022/09/18 01:47:21;;;;;;;3.30;2.95;;;;;;;10.71;100.00;96408.48;1825984;77;20920;-61
2022/09/18 01:49:48;;;;;;;6.60;3.47;;;;;;;10.67;100.00;96400.88;1849216;77;21110;-61
2022/09/18 01:52:24;;;;;;;4.90;3.45;;;;;;;10.64;100.00;96398.30;1849067;77;20900;-61
2022/09/18 01:54:51;;;;;;;4.33;3.70;;;;;;;10.63;100.00;96395.94;1849461;77;20904;-61
2022/09/18 01:57:40;;;;;;;4.05;3.50;;;;;;;10.63;100.00;96395.94;1849234;77;20892;-61
2022/09/18 02:00:11;;;;;;;4.12;3.15;;;;;;;10.63;100.00;96389.24;1809118;79;20849;-61
2022/09/18 02:02:52;;;;;;;7.10;3.47;;;;;;;10.61;100.00;96380.76;1809090;79;21171;-61
2022/09/18 02:05:29;;;;;;;4.37;3.70;;;;;;;10.59;100.00;96358.89;1814722;79;20971;-60
2022/09/18 02:08:12;;;;;;;4.22;3.55;;;;;;;10.59;100.00;96328.10;1849005;77;20876;-60
2022/09/18 02:11:02;;;;;;;6.53;4.00;;;;;;;10.61;100.00;96289.18;1849311;77;20967;-63
2022/09/18 02:13:37;;;;;;;6.08;3.72;;;;;;;10.65;100.00;96273.22;1847116;77;21670;-62
2022/09/18 02:16:09;;;;;;;7.62;4.30;;;;;;;10.65;100.00;96302.67;1808623;78;21039;-62
2022/09/18 02:18:43;;;;;;;5.10;3.73;;;;;;;10.65;100.00;96298.66;1838777;77;21537;-62
2022/09/18 02:21:14;;;;;;;4.10;3.70;;;;;;;10.62;100.00;96304.70;1838443;78;20916;-61
2022/09/18 02:23:41;;;;;;;4.58;3.42;;;;;;;10.62;100.00;96312.15;1838962;78;20927;-61
2022/09/18 02:26:08;;;;;;;4.20;3.35;;;;;;;10.61;100.00;96299.10;1838450;78;20860;-62
2022/09/18 02:28:35;;;;;;;3.45;3.15;;;;;;;10.58;100.00;96310.46;1838449;78;21230;-61
2022/09/18 02:31:02;;;;;;;5.45;3.98;;;;;;;10.57;100.00;96321.75;1808688;78;20916;-61
2022/09/18 02:33:34;;;;;;;7.17;4.30;;;;;;;10.59;100.00;96330.23;1838929;78;20943;-60
2022/09/18 02:36:16;;;;;;;5.72;3.52;;;;;;;10.63;100.00;96325.77;1838434;78;20869;-61
2022/09/18 02:39:13;;;;;;;6.10;3.52;;;;;;;10.67;100.00;96317.30;1838498;78;20901;-61
2022/09/18 02:42:05;;;;;;;6.97;3.80;;;;;;;10.65;100.00;96320.87;1838545;77;22064;-61
2022/09/18 02:44:58;;;;;;;5.30;4.08;;;;;;;10.62;100.00;96319.42;1838514;78;20872;-61
2022/09/18 02:47:58;;;;;;;7.80;4.45;;;;;;;10.61;100.00;96307.13;1838471;78;20834;-61
2022/09/18 02:50:41;;;;;;;6.80;4.15;;;;;;;10.64;100.00;96290.41;1838396;78;20927;-62
2022/09/18 02:53:29;;;;;;;4.67;3.40;;;;;;;10.66;100.00;96270.23;1838392;78;20892;-61
2022/09/18 02:56:04;;;;;;;5.92;3.92;;;;;;;10.67;100.00;96257.05;1838577;78;21118;-62
2022/09/18 02:58:45;;;;;;;5.53;4.08;;;;;;;10.62;100.00;96259.94;1815197;78;20924;-60
2022/09/18 03:01:12;;;;;;;6.72;4.22;;;;;;;10.62;100.00;96283.28;1838559;78;20861;-61
2022/09/18 03:03:39;;;;;;;4.25;3.85;;;;;;;10.62;100.00;96296.08;1838371;78;21091;-61
2022/09/18 03:06:08;;;;;;;6.20;3.95;;;;;;;10.65;100.00;96295.43;1790910;78;20943;-60
2022/09/18 03:08:36;;;;;;;7.10;3.98;;;;;;;10.68;100.00;96290.76;1808716;78;21419;-61
2022/09/18 03:11:04;;;;;;;5.25;4.50;;;;;;;10.69;100.00;96288.30;1838323;78;20980;-61
2022/09/18 03:13:31;;;;;;;5.90;4.67;;;;;;;10.72;100.00;96279.60;1839063;77;21470;-61
2022/09/18 03:15:58;;;;;;;6.42;4.40;;;;;;;10.71;100.00;96274.04;1849668;77;20841;-61
2022/09/18 03:18:26;;;;;;;5.62;4.40;;;;;;;10.70;100.00;96264.43;1849653;77;20876;-61
2022/09/18 03:20:55;;;;;;;5.83;4.30;;;;;;;10.71;100.00;96264.67;1849762;77;21118;-61
2022/09/18 03:23:22;;;;;;;6.67;4.33;;;;;;;10.69;100.00;96258.84;1849702;77;20876;-61
2022/09/18 03:25:51;;;;;;;6.08;5.30;;;;;;;10.68;100.00;96251.94;1849747;77;20954;-62
2022/09/18 03:28:18;;;;;;;6.30;5.05;;;;;;;10.69;100.00;96248.12;1849849;77;21434;-61
2022/09/18 03:30:45;;;;;;;5.45;4.70;;;;;;;10.73;100.00;96247.70;1849646;77;20954;-61
2022/09/18 03:33:12;;;;;;;5.33;4.20;;;;;;;10.74;100.00;96245.23;1849641;77;21966;-62
2022/09/18 03:35:42;;;;;;;8.00;4.50;;;;;;;10.68;100.00;96241.77;1849569;77;20915;-61
2022/09/18 03:38:09;;;;;;;5.50;4.20;;;;;;;10.61;100.00;96236.97;1849643;77;21007;-61
2022/09/18 03:40:36;;;;;;;5.30;4.28;;;;;;;10.56;100.00;96241.20;1849837;77;21391;-61
2022/09/18 03:43:04;;;;;;;5.22;4.20;;;;;;;10.47;100.00;96249.88;1849688;77;21437;-62
2022/09/18 03:45:31;;;;;;;4.28;3.75;;;;;;;10.43;100.00;96248.98;1849798;77;21232;-62
2022/09/18 03:47:59;;;;;;;6.37;3.77;;;;;;;10.36;100.00;96244.73;1849519;77;20955;-61
2022/09/18 03:50:26;;;;;;;4.45;3.40;;;;;;;10.35;100.00;96251.73;1849568;77;20872;-62
2022/09/18 03:52:54;;;;;;;6.03;3.90;;;;;;;10.33;100.00;96249.39;1849625;77;20911;-62
2022/09/18 03:55:23;;;;;;;5.87;3.95;;;;;;;10.31;100.00;96248.95;1830526;77;20911;-62
2022/09/18 03:58:02;;;;;;;5.22;3.70;;;;;;;10.30;100.00;96242.02;1845334;77;21722;-61
2022/09/18 04:00:45;;;;;;;5.62;3.83;;;;;;;10.29;100.00;96233.20;1844783;77;20876;-61
2022/09/18 04:03:14;;;;;;;5.80;3.50;;;;;;;10.27;100.00;96230.63;1849321;77;21347;-62
2022/09/18 04:05:59;;;;;;;3.83;3.40;;;;;;;10.21;100.00;96228.73;1849851;77;20860;-60
2022/09/18 04:08:28;;;;;;;5.45;3.50;;;;;;;10.18;100.00;96231.27;1849615;77;20860;-61
2022/09/18 04:10:59;;;;;;;4.65;3.40;;;;;;;10.15;100.00;96219.91;1849183;77;21307;-61
2022/09/18 04:13:28;;;;;;;4.08;3.45;;;;;;;10.11;100.00;96220.30;1849605;77;20895;-61
2022/09/18 04:15:57;;;;;;;5.05;3.25;;;;;;;10.05;100.00;96227.76;1848530;77;20856;-62
2022/09/18 04:18:24;;;;;;;6.15;3.90;;;;;;;10.00;100.00;96231.18;1848985;77;20943;-62
2022/09/18 04:20:50;;;;;;;6.17;3.27;;;;;;;9.96;100.00;96223.59;1849037;77;21052;-61
2022/09/18 04:23:17;;;;;;;5.78;3.92;;;;;;;9.94;100.00;96217.22;1849185;77;21231;-62
2022/09/18 04:25:44;;;;;;;5.83;3.20;;;;;;;9.89;100.00;96217.99;1849178;77;20825;-61
2022/09/18 04:28:12;;;;;;;5.72;3.58;;;;;;;9.89;100.00;96215.31;1849314;77;20951;-62
2022/09/18 04:30:40;;;;;;;5.33;3.70;;;;;;;9.89;100.00;96222.00;1849242;77;20951;-61
2022/09/18 04:33:07;;;;;;;4.83;3.37;;;;;;;9.82;100.00;96219.08;1849291;77;20837;-63
2022/09/18 04:35:35;;;;;;;5.25;3.15;;;;;;;9.80;100.00;96199.91;1816654;77;21984;-60
2022/09/18 04:38:02;;;;;;;4.03;3.10;;;;;;;9.78;100.00;96192.75;1849131;77;21478;-61
2022/09/18 04:40:30;;;;;;;5.03;3.30;;;;;;;9.74;100.00;96188.63;1849350;77;21544;-60
2022/09/18 04:42:57;;;;;;;9.10;4.05;;;;;;;9.73;100.00;96187.05;1849484;77;21417;-61
2022/09/18 04:45:24;;;;;;;6.12;3.58;;;;;;;9.78;100.00;96186.06;1849172;77;20928;-63
2022/09/18 04:47:51;;;;;;;5.10;3.20;;;;;;;9.82;100.00;96187.75;1849260;77;22005;-63
2022/09/18 04:50:18;;;;;;;5.40;3.40;;;;;;;9.88;100.00;96184.33;1849090;77;20868;-62
2022/09/18 04:53:05;;;;;;;4.87;3.60;;;;;;;9.89;100.00;96175.97;1847471;77;21343;-62
2022/09/18 04:55:33;;;;;;;6.15;4.00;;;;;;;9.87;100.00;96174.76;1849172;77;21042;-62
2022/09/18 04:58:01;;;;;;;6.97;3.45;;;;;;;9.88;100.00;96170.95;1849254;77;20861;-61
2022/09/18 05:00:30;;;;;;;4.28;3.47;;;;;;;9.88;100.00;96177.64;1849262;77;21240;-63
2022/09/18 05:02:57;;;;;;;5.37;3.40;;;;;;;9.86;100.00;96175.86;1849109;77;20825;-62
2022/09/18 05:05:27;;;;;;;5.80;3.85;;;;;;;9.83;100.00;96175.17;1849278;77;20864;-62
2022/09/18 05:08:00;;;;;;;5.67;4.03;;;;;;;9.77;100.00;96176.49;1849148;77;20892;-63
2022/09/18 05:10:28;;;;;;;4.58;3.77;;;;;;;9.76;100.00;96172.23;1849267;77;21374;-66
2022/09/18 05:12:54;;;;;;;6.22;3.77;;;;;;;9.76;100.00;96177.59;1849167;77;21098;-62
2022/09/18 05:15:21;;;;;;;4.58;3.20;;;;;;;9.75;100.00;96168.02;1849433;77;20916;-62
2022/09/18 05:18:00;;;;;;;6.10;3.70;;;;;;;9.74;100.00;96165.90;1849750;77;20884;-63
2022/09/18 05:20:27;;;;;;;4.97;3.62;;;;;;;9.76;100.00;96166.89;1849766;77;20911;-63
2022/09/18 05:22:56;;;;;;;5.08;4.00;;;;;;;9.74;100.00;96165.11;1849735;77;20872;-63
2022/09/18 05:25:26;;;;;;;5.03;3.83;;;;;;;9.72;100.00;96163.32;1849856;77;21074;-63
2022/09/18 05:27:58;;;;;;;6.05;3.33;;;;;;;9.75;100.00;96176.05;1849795;77;20958;-63
2022/09/18 05:30:27;;;;;;;6.87;3.67;;;;;;;9.78;100.00;96176.70;1849561;77;20872;-63
2022/09/18 05:32:58;;;;;;;6.28;3.60;;;;;;;9.76;100.00;96180.27;1849692;77;20928;-62
2022/09/18 05:35:27;;;;;;;4.25;3.72;;;;;;;9.76;100.00;96177.05;1848413;77;20896;-62
2022/09/18 05:37:54;;;;;;;5.47;3.42;;;;;;;9.77;100.00;96167.13;1849701;77;21086;-60
2022/09/18 05:40:23;;;;;;;4.55;3.10;;;;;;;9.78;100.00;96174.03;1849841;77;20923;-61
2022/09/18 05:42:54;;;;;;;7.08;3.60;;;;;;;9.77;100.00;96166.59;1850131;77;20998;-62
2022/09/18 05:45:21;;;;;;;5.60;3.67;;;;;;;9.75;100.00;96158.66;1849830;77;20880;-61
2022/09/18 05:47:55;;;;;;;5.72;3.62;;;;;;;9.74;100.00;96157.09;1849759;77;20915;-61
2022/09/18 05:50:22;;;;;;;4.40;2.90;;;;;;;9.72;100.00;96150.74;1849275;77;21113;-61
2022/09/18 05:53:13;;;;;;;4.45;3.50;;;;;;;9.70;100.00;96150.84;1849843;77;21451;-61
2022/09/18 05:55:42;;;;;;;3.60;2.92;;;;;;;9.67;100.00;96146.14;1850486;77;20872;-62
2022/09/18 05:58:15;;;;;;;4.25;3.00;;;;;;;9.60;100.00;96151.48;1852266;77;20872;-61
2022/09/18 06:00:43;;;;;;;5.80;2.98;;;;;;;9.55;100.00;96154.34;1850605;76;20919;-62
2022/09/18 06:03:13;;;;;;;3.65;2.80;;;;;;;9.54;100.00;96158.66;1852281;77;21113;-62
2022/09/18 06:05:41;;;;;;;5.35;2.80;;;;;;;9.54;100.00;96163.45;1849738;77;20955;-62
2022/09/18 06:08:11;;;;;;;4.72;3.20;;;;;;;9.54;100.00;96160.00;1849907;77;20927;-64
2022/09/18 06:10:39;;;;;;;7.40;3.35;;;;;;;9.54;100.00;96170.14;1849652;77;20880;-63
2022/09/18 06:13:11;;;;;;;2.98;2.62;;;;;;;9.60;100.00;96168.84;1849704;77;20966;-64
2022/09/18 06:15:42;;;;;;;3.08;2.40;;;;;;;9.61;100.00;96165.59;1849556;77;21110;-63
2022/09/18 06:18:09;;;;;;;3.75;2.80;;;;;;;9.59;100.00;96161.14;1819462;77;21835;-63
2022/09/18 06:20:36;;;;;;;3.50;2.77;;;;;;;9.59;100.00;96163.81;1848177;77;21055;-63
2022/09/18 06:23:03;;;;;;;4.53;3.12;;;;;;;9.62;100.00;96159.16;1848023;77;21050;-64
2022/09/18 06:25:33;;;;;;;3.70;3.02;;;;;;;9.62;100.00;96160.50;1847782;77;21572;-62
2022/09/18 06:28:00;;;;;;;3.85;3.22;;;;;;;9.63;100.00;96165.50;1851914;77;21134;-63
2022/09/18 06:30:29;;;;;;;4.45;3.00;;;;;;;9.64;100.00;96175.09;1854038;77;20911;-62
2022/09/18 06:33:01;;;;;;;3.40;3.08;;;;;;;9.63;100.00;96174.09;1832549;77;20983;-63
2022/09/18 06:35:28;;;;;;;3.37;2.92;;;;;;;9.62;100.00;96181.87;1850439;77;20869;-63
2022/09/18 06:37:55;;;;;;;3.50;3.10;;;;;;;9.58;100.00;96175.08;1842056;77;20852;-62
2022/09/18 06:40:29;;;;;;;4.97;4.00;;;;;;;9.60;100.00;96170.19;1802204;77;21173;-62
2022/09/18 06:43:17;;;;;;;3.80;2.95;;;;;;;9.64;100.00;96174.31;1847116;77;20919;-63
2022/09/18 06:48:34;;;;;;;4.37;3.52;;;;;;;9.57;100.00;96178.85;1849336;77;20892;-61
2022/09/18 06:51:03;;;;;;;3.80;2.87;;;;;;;9.55;100.00;96185.08;1845671;77;21438;-62
2022/09/18 06:53:31;;;;;;;3.65;2.92;;;;;;;9.57;100.00;96185.53;1848748;77;21134;-61
2022/09/18 06:56:02;;;;;;;3.75;2.90;;;;;;;9.57;100.00;96185.53;1840152;76;20986;-62
2022/09/18 06:58:31;;;;;;;3.65;3.27;;;;;;;9.52;100.00;96188.40;1836369;77;21060;-61
2022/09/18 07:00:59;;;;;;;3.27;2.98;;;;;;;9.50;100.00;96187.16;1814899;79;21569;-62
2022/09/18 07:03:28;;;;;;;3.10;2.80;;;;;;;9.50;100.00;96186.61;1815031;79;21135;-62
2022/09/18 07:06:07;;;;;;;4.22;2.50;;;;;;;9.50;100.00;96182.60;1815546;79;21028;-62
2022/09/18 07:08:35;;;;;;;4.03;2.70;;;;;;;9.51;100.00;96178.83;1796019;77;21446;-61
2022/09/18 07:11:09;;;;;;;4.47;2.55;;;;;;;9.51;100.00;96177.50;1840124;77;21005;-62
2022/09/18 07:13:37;;;;;;;3.70;3.15;;;;;;;9.53;100.00;96181.17;1834105;77;21011;-63
2022/09/18 07:16:05;;;;;;;4.33;2.80;;;;;;;9.56;100.00;96185.29;1824463;77;21041;-62
2022/09/18 07:18:32;;;;;;;3.42;2.67;;;;;;;9.59;100.00;96187.87;1828855;78;21153;-62
2022/09/18 07:20:59;;;;;;;3.00;2.55;;;;;;;9.59;100.00;96195.89;1836907;77;20901;-62
2022/09/18 07:23:32;;;;;;;2.95;2.75;;;;;;;9.60;100.00;96188.90;1817091;77;20967;-62
2022/09/18 07:26:02;;;;;;;4.92;3.27;;;;;;;9.59;100.00;96189.99;1827256;77;21445;-60
2022/09/18 07:28:30;;;;;;;3.80;2.95;;;;;;;9.56;100.00;96185.29;1815789;79;21066;-62
2022/09/18 07:31:05;;;;;;;3.60;3.00;;;;;;;9.55;100.00;96187.75;1814684;78;21243;-61
2022/09/18 07:33:34;;;;;;;3.92;2.77;;;;;;;9.56;100.00;96183.95;1815714;79;21458;-61
2022/09/18 07:36:03;;;;;;;3.27;2.83;;;;;;;9.56;100.00;96193.89;1815743;79;20923;-63
2022/09/18 07:38:33;;;;;;;3.37;2.65;;;;;;;9.56;100.00;96191.97;1815718;79;20931;-61
2022/09/18 07:41:07;;;;;;;3.00;2.67;;;;;;;9.56;100.00;96197.90;1831083;77;20903;-62
2022/09/18 07:43:40;;;;;;;6.13;3.20;;;;;;;9.57;100.00;96194.09;1826008;77;21917;-61
2022/09/18 07:46:16;;;;;;;5.85;4.70;;;;;;;9.61;100.00;96205.14;1815582;79;20996;-61
2022/09/18 07:48:48;;;;;;;4.00;3.60;;;;;;;9.67;100.00;96199.61;1823678;77;20943;-61
2022/09/18 07:51:17;;;;;;;3.60;3.20;;;;;;;9.70;100.00;96198.41;1824086;77;20912;-61
2022/09/18 07:53:47;;;;;;;3.65;3.00;;;;;;;9.68;100.00;96201.19;1849613;77;20928;-60
2022/09/18 07:56:16;;;;;;;3.50;2.50;;;;;;;9.64;100.00;96193.81;1847750;77;21107;-61
2022/09/18 07:58:43;;;;;;;3.42;2.75;;;;;;;9.58;100.00;96197.80;1809077;79;20967;-61
2022/09/18 08:01:12;;;;;;;3.35;2.60;;;;;;;9.51;100.00;96202.89;1807807;79;20944;-62
2022/09/18 08:03:40;;;;;;;3.47;2.70;;;;;;;9.50;100.00;96202.64;1808171;79;20995;-62
2022/09/18 08:06:11;;;;;;;3.35;2.55;;;;;;;9.48;100.00;96194.72;1809125;79;20928;-62
2022/09/18 08:08:41;;;;;;;;;;;;;;;9.45;100.00;96195.36;1810344;79;40103;-62
2022/09/18 08:11:17;;;;;;;3.42;2.25;;;;;;;9.44;100.00;96197.83;1808142;79;20117;-62
2022/09/18 08:13:49;;;;;;;2.95;2.50;;;;;;;9.43;100.00;96198.37;1808280;79;21014;-62
2022/09/18 08:16:33;;;;;;;3.00;2.70;;;;;;;9.42;100.00;96196.80;1810063;79;21034;-62
2022/09/18 08:19:19;;;;;;;3.90;2.70;;;;;;;9.40;100.00;96195.01;1811509;79;21370;-62
2022/09/18 08:21:47;;;;;;;2.72;2.10;;;;;;;9.39;100.00;96196.13;1812242;79;21119;-61
2022/09/18 08:24:16;;;;;;;2.87;2.42;;;;;;;9.39;100.00;96201.48;1812722;79;20873;-62
2022/09/18 08:26:44;;;;;;;2.95;2.37;;;;;;;9.40;100.00;96198.23;1812832;79;20904;-62
2022/09/18 08:29:17;;;;;;;3.02;2.60;;;;;;;9.42;100.00;96194.12;1812362;79;20928;-62
2022/09/18 08:31:40;;;;;;;2.20;2.00;;;;;;;9.45;100.00;96193.48;1811380;79;21030;-61
2022/09/18 08:34:09;;;;;;;2.33;2.08;;;;;;;9.51;100.00;96192.20;1812600;79;21115;-62
2022/09/18 08:36:41;;;;;;;2.58;2.22;;;;;;;9.53;100.00;96195.32;1812801;79;20919;-62
2022/09/18 08:39:14;;;;;;;3.27;2.40;;;;;;;9.56;100.00;96198.66;1812525;79;20971;-62
2022/09/18 08:42:14;;;;;;;2.30;1.95;;;;;;;9.55;100.00;96201.12;1812835;79;20888;-63
2022/09/18 08:44:55;;;;;;;1.73;1.60;;;;;;;9.55;100.00;96195.77;1813213;79;20928;-61
2022/09/18 08:47:42;;;;;;;3.17;2.10;;;;;;;9.51;100.00;96203.44;1747686;79;21253;-62
2022/09/18 08:50:25;;;;;;;2.42;1.90;;;;;;;9.48;100.00;96201.41;1813252;79;20829;-62
2022/09/18 08:53:07;;;;;;;2.22;2.02;;;;;;;9.47;100.00;96201.95;1812841;79;20944;-62
2022/09/18 08:55:41;;;;;;;2.15;1.67;;;;;;;9.39;100.00;96204.15;1810081;79;20923;-61
2022/09/18 08:58:27;;;;;;;2.70;2.30;;;;;;;9.32;100.00;96209.23;1810965;79;20955;-61
2022/09/18 09:00:59;;;;;;;3.15;1.98;;;;;;;9.25;100.00;96204.95;1812655;79;21107;-62
2022/09/18 09:04:13;;;;;;;2.30;2.00;;;;;;;9.22;100.00;96214.94;1808924;79;20903;-62
2022/09/18 09:07:20;;;;;;;4.55;2.15;;;;;;;9.18;100.00;96212.69;1812827;79;20904;-61
2022/09/18 09:10:10;;;;;;;2.40;2.05;;;;;;;9.12;100.00;96219.31;1810609;79;20924;-64
2022/09/18 09:12:59;;;;;;;2.27;2.08;;;;;;;9.04;100.00;96212.14;1812976;78;20880;-62
2022/09/18 09:15:52;;;;;;;3.90;2.10;;;;;;;9.03;100.00;96216.45;1774958;78;21248;-63
2022/09/18 09:18:41;;;;;;;2.30;2.10;;;;;;;9.02;100.00;96227.69;1812540;79;20869;-64
2022/09/18 09:21:24;;;;;;;5.03;1.77;;;;;;;8.99;100.00;96231.02;1812717;79;20829;-62
2022/09/18 09:24:19;;;;;;;2.00;1.70;;;;;;;8.98;100.00;96234.78;1812946;79;20928;-61
2022/09/18 09:27:00;;;;;;;2.23;1.73;;;;;;;8.93;100.00;96245.09;1782760;79;20868;-63
2022/09/18 09:29:44;;;;;;;3.00;2.12;;;;;;;8.92;100.00;96254.77;1809351;79;22033;-62
2022/09/18 09:32:29;;;;;;;2.67;1.90;;;;;;;8.90;100.00;96254.31;1800135;79;20837;-64
2022/09/18 09:35:29;;;;;;;2.42;1.80;;;;;;;8.90;100.00;96261.74;1811727;79;21067;-63
2022/09/18 09:38:28;;;;;;;3.40;2.10;;;;;;;8.91;100.00;96271.88;1812745;79;20869;-64
2022/09/18 09:40:55;;;;;;;2.50;2.30;;;;;;;8.92;100.00;96276.13;1813116;79;20829;-62
2022/09/18 09:43:53;;;;;;;2.87;2.20;;;;;;;8.95;100.00;96272.80;1812946;79;21231;-64
2022/09/18 09:46:26;;;;;;;2.58;2.12;;;;;;;8.97;100.00;96281.30;1813032;79;21514;-62
2022/09/18 09:49:12;;;;;;;4.42;2.70;;;;;;;8.97;100.00;96283.97;1812499;79;20935;-63
2022/09/18 09:51:54;;;;;;;3.12;2.50;;;;;;;9.00;100.00;96284.64;1810849;79;20876;-63
2022/09/18 09:54:21;;;;;;;4.95;2.80;;;;;;;9.05;100.00;96291.69;1812996;79;20970;-62
2022/09/18 09:57:18;;;;;;;2.70;2.50;;;;;;;9.09;100.00;96294.73;1822328;78;21211;-63
2022/09/18 10:00:12;;;;;;;2.72;2.45;;;;;;;9.13;100.00;96300.23;1834491;78;20869;-63
2022/09/18 10:03:26;;;;;;;4.25;3.00;;;;;;;9.15;100.00;96309.48;1838831;78;21021;-63
2022/09/18 10:06:16;;;;;;;2.58;2.30;;;;;;;9.13;100.00;96309.03;1838933;78;21474;-63
2022/09/18 10:08:58;;;;;;;2.60;2.22;;;;;;;9.09;100.00;96324.69;1838597;78;20916;-62
2022/09/18 10:11:25;;;;;;;2.83;2.52;;;;;;;9.07;100.00;96331.66;1838572;78;21105;-63
2022/09/18 10:14:11;;;;;;;3.02;2.47;;;;;;;9.06;100.00;96330.11;1838110;78;20869;-63
2022/09/18 10:16:42;;;;;;;6.12;2.55;;;;;;;9.05;100.00;96327.20;1843141;77;21348;-64
2022/09/18 10:19:17;;;;;;;4.90;2.47;;;;;;;9.05;100.00;96341.88;1850169;77;20903;-63
2022/09/18 10:21:45;;;;;;;2.77;2.37;;;;;;;9.06;100.00;96337.33;1849864;77;21358;-63
2022/09/18 10:24:29;;;;;;;4.65;2.52;;;;;;;9.07;100.00;96348.27;1849802;77;21101;-63
2022/09/18 10:27:03;;;;;;;;;;;;;;;9.07;100.00;96351.69;1852435;77;20892;-64
2022/09/18 10:29:30;;;;;;;4.65;2.80;;;;;;;9.12;100.00;96356.08;1820284;77;20150;-62
2022/09/18 10:31:59;;;;;;;3.10;2.52;;;;;;;9.11;100.00;96364.66;1849635;77;20880;-61
2022/09/18 10:34:44;;;;;;;3.95;2.60;;;;;;;9.10;100.00;96372.97;1849787;77;20857;-63
2022/09/18 10:37:28;;;;;;;3.22;2.90;;;;;;;9.07;100.00;96365.05;1849542;77;21191;-61
2022/09/18 10:40:00;;;;;;;4.12;2.83;;;;;;;9.05;100.00;96367.80;1830849;77;21037;-62
2022/09/18 10:42:29;;;;;;;3.05;2.50;;;;;;;9.04;100.00;96370.25;1866085;77;21512;-62
2022/09/18 10:45:04;;;;;;;2.47;2.02;;;;;;;9.04;100.00;96383.06;1864807;76;21027;-61
2022/09/18 10:47:34;;;;;;;;;;;;;;;9.07;100.00;96385.08;1869717;77;20908;-62
2022/09/18 10:50:15;;;;;;;3.52;2.90;;;;;;;9.05;100.00;96387.83;1866829;77;21181;-62
2022/09/18 10:52:52;;;;;;;2.92;2.52;;;;;;;9.03;100.00;96388.70;1853856;77;21501;-64
2022/09/18 10:55:25;;;;;;;2.92;2.50;;;;;;;8.99;100.00;96389.91;1838233;78;21404;-64
2022/09/18 10:58:02;;;;;;;3.65;2.72;;;;;;;9.00;100.00;96406.14;1838456;78;20948;-64
2022/09/18 11:00:35;;;;;;;4.30;2.72;;;;;;;8.99;100.00;96399.25;1838851;78;20813;-64
2022/09/18 11:03:36;;;;;;;4.97;2.90;;;;;;;9.00;100.00;96410.73;1838686;78;21270;-63
2022/09/18 11:06:25;;;;;;;2.60;2.02;;;;;;;8.99;100.00;96410.48;1838634;78;20948;-62
2022/09/18 11:08:53;;;;;;;3.47;2.20;;;;;;;8.95;100.00;96424.45;1837990;78;20961;-63
2022/09/18 11:11:36;;;;;;;4.67;2.52;;;;;;;8.91;100.00;96421.41;1838945;78;20963;-63
2022/09/18 11:14:08;;;;;;;;;;;;;;;8.88;100.00;96432.71;1847075;77;20942;-63
2022/09/18 11:16:44;;;;;;;2.12;1.60;;;;;;;8.85;100.00;96430.70;1765121;78;21666;-62
2022/09/18 11:19:29;;;;;;;2.52;2.00;;;;;;;8.84;100.00;96441.13;1793421;78;21485;-63
2022/09/18 11:22:01;;;;;;;3.72;2.10;;;;;;;8.84;100.00;96437.12;1811445;78;20898;-62
2022/09/18 11:24:33;;;;;;;2.20;2.00;;;;;;;8.87;100.00;96441.84;1749652;81;20940;-63
2022/09/18 11:27:21;;;;;;;5.15;1.90;;;;;;;8.90;100.00;96440.64;1775299;80;21048;-63
2022/09/18 11:29:48;;;;;;;2.37;1.70;;;;;;;8.95;100.00;96438.36;1777030;80;21970;-62
2022/09/18 11:32:34;;;;;;;2.40;1.60;;;;;;;8.95;100.00;96440.48;1749350;80;21395;-62
2022/09/18 11:35:01;;;;;;;3.45;1.92;;;;;;;8.97;100.00;96446.06;1776547;80;20976;-62
2022/09/18 11:37:37;;;;;;;1.55;1.42;;;;;;;8.97;100.00;96440.19;1777193;80;21430;-61
2022/09/18 11:40:09;;;;;;;1.65;1.55;;;;;;;9.01;100.00;96445.11;1777443;80;21482;-62
2022/09/18 11:42:43;;;;;;;1.67;1.40;;;;;;;9.08;100.00;96443.29;1750846;80;21224;-62
2022/09/18 11:45:40;;;;;;;2.72;2.00;;;;;;;9.18;100.00;96450.44;1786601;80;20943;-64
2022/09/18 11:48:38;;;;;;;2.25;1.85;;;;;;;9.27;100.00;96449.86;1787958;80;21129;-63
2022/09/18 11:51:13;;;;;;;1.67;1.47;;;;;;;9.38;100.00;96447.06;1787917;80;21074;-63
2022/09/18 11:53:43;;;;;;;1.70;1.50;;;;;;;9.45;100.00;96443.34;1788552;80;20990;-62
2022/09/18 11:56:37;;;;;;;2.85;1.45;;;;;;;9.47;100.00;96447.03;1788839;80;21091;-63
2022/09/18 11:59:43;;;;;;;1.65;1.20;;;;;;;9.46;100.00;96440.92;1789039;80;20880;-64
2022/09/18 12:02:27;;;;;;;2.33;1.80;;;;;;;9.51;100.00;96451.98;1788902;80;20904;-62
2022/09/18 12:05:36;;;;;;;1.77;1.55;;;;;;;9.49;100.00;96450.19;1788908;80;20974;-64
2022/09/18 12:08:33;;;;;;;3.10;1.72;;;;;;;9.50;100.00;96452.53;1788916;80;20979;-63
2022/09/18 12:11:22;;;;;;;1.92;1.55;;;;;;;9.49;100.00;96453.62;1788448;80;21114;-62